FWKI

Lilongwe International Airport

Lilongwe, Malawi
METAR FWKI 131600Z 05003KT 9999 TS FEW020CB SCT022 BKN070 20/18 Q1019 NOSIG
Observed Flight Rules
Dec-13 @ 16:00 UTC (12 hours ago) Visual Flight Rules
Wind Visibility Clouds Conditions
50° at 3 knots 10,000+ meters
  • Few at 2,000' AGL
  • Scattered at 2,200' AGL
  • Broken at 7,000' AGL
  • Thunderstorm
Temperatures Readings
Current 20°C / 68°F
Dewpoint 18°C / 64°F
Humidity 88%
Altimeter 30.09" Hg
Pressure 1019 hPa
Elevation 1229
METAR FWKI 131600Z 05003KT 9999 TS FEW020CB SCT022 BKN070 20/18 Q1019 NOSIG
Observed Flight Rules
Dec-13 @ 16:00 UTC
(12 hours ago)
VFR
Wind Visibility
50° at 3 knots 10,000+ meters
Clouds
  • Few at 2,000' AGL
  • Scattered at 2,200' AGL
  • Broken at 7,000' AGL
Conditions
  • Thunderstorm
Temperature Dewpoint
20°C / 68°F 18°C / 64°F
Humidity Altimeter Pressure
88% 30.09" Hg 1019 hPa